sensor_id;sensor_type;location;lat;lon;timestamp;P1;durP1;ratioP1;P2;durP2;ratioP2
22138;SDS011;25815;52.582;13.408;2024-03-02T00:01:07;64.57;;;31.38;;
22138;SDS011;25815;52.582;13.408;2024-03-02T00:03:36;63.40;;;32.05;;
22138;SDS011;25815;52.582;13.408;2024-03-02T00:06:03;60.38;;;31.58;;
22138;SDS011;25815;52.582;13.408;2024-03-02T00:08:29;64.03;;;30.95;;
22138;SDS011;25815;52.582;13.408;2024-03-02T00:10:58;65.93;;;31.48;;
22138;SDS011;25815;52.582;13.408;2024-03-02T00:13:24;63.10;;;29.95;;
22138;SDS011;25815;52.582;13.408;2024-03-02T00:15:54;61.58;;;30.92;;
22138;SDS011;25815;52.582;13.408;2024-03-02T00:18:24;65.25;;;29.95;;
22138;SDS011;25815;52.582;13.408;2024-03-02T00:23:21;57.53;;;29.70;;
22138;SDS011;25815;52.582;13.408;2024-03-02T00:25:47;59.35;;;30.83;;
22138;SDS011;25815;52.582;13.408;2024-03-02T00:28:18;62.85;;;31.48;;
22138;SDS011;25815;52.582;13.408;2024-03-02T00:33:37;61.83;;;30.25;;
22138;SDS011;25815;52.582;13.408;2024-03-02T00:36:04;58.15;;;29.38;;
22138;SDS011;25815;52.582;13.408;2024-03-02T00:38:30;52.00;;;28.50;;
22138;SDS011;25815;52.582;13.408;2024-03-02T00:41:00;57.60;;;28.67;;
22138;SDS011;25815;52.582;13.408;2024-03-02T00:43:41;56.30;;;28.48;;
22138;SDS011;25815;52.582;13.408;2024-03-02T00:46:08;61.80;;;30.02;;
22138;SDS011;25815;52.582;13.408;2024-03-02T00:48:35;54.67;;;28.00;;
22138;SDS011;25815;52.582;13.408;2024-03-02T00:51:02;54.33;;;27.08;;
22138;SDS011;25815;52.582;13.408;2024-03-02T00:53:29;59.58;;;28.55;;
22138;SDS011;25815;52.582;13.408;2024-03-02T00:55:56;58.60;;;28.42;;
22138;SDS011;25815;52.582;13.408;2024-03-02T00:58:22;55.72;;;27.88;;
22138;SDS011;25815;52.582;13.408;2024-03-02T01:00:47;55.92;;;27.15;;
22138;SDS011;25815;52.582;13.408;2024-03-02T01:03:13;60.50;;;29.17;;
22138;SDS011;25815;52.582;13.408;2024-03-02T01:05:42;56.47;;;28.40;;
22138;SDS011;25815;52.582;13.408;2024-03-02T01:08:08;56.13;;;28.70;;
22138;SDS011;25815;52.582;13.408;2024-03-02T01:10:34;55.40;;;28.90;;
22138;SDS011;25815;52.582;13.408;2024-03-02T01:12:59;56.55;;;28.10;;
22138;SDS011;25815;52.582;13.408;2024-03-02T01:15:25;55.33;;;28.23;;
22138;SDS011;25815;52.582;13.408;2024-03-02T01:17:51;53.03;;;26.98;;
22138;SDS011;25815;52.582;13.408;2024-03-02T01:20:16;57.13;;;27.88;;
22138;SDS011;25815;52.582;13.408;2024-03-02T01:22:42;57.35;;;29.27;;
22138;SDS011;25815;52.582;13.408;2024-03-02T01:25:08;58.80;;;28.20;;
22138;SDS011;25815;52.582;13.408;2024-03-02T01:27:34;55.70;;;26.73;;
22138;SDS011;25815;52.582;13.408;2024-03-02T01:30:00;54.80;;;27.83;;
22138;SDS011;25815;52.582;13.408;2024-03-02T01:32:25;55.13;;;26.70;;
22138;SDS011;25815;52.582;13.408;2024-03-02T01:34:51;51.00;;;26.63;;
22138;SDS011;25815;52.582;13.408;2024-03-02T01:37:16;56.83;;;27.70;;
22138;SDS011;25815;52.582;13.408;2024-03-02T01:39:42;51.53;;;26.55;;
22138;SDS011;25815;52.582;13.408;2024-03-02T01:42:07;56.95;;;27.27;;
22138;SDS011;25815;52.582;13.408;2024-03-02T01:44:33;54.40;;;27.08;;
22138;SDS011;25815;52.582;13.408;2024-03-02T01:46:59;55.03;;;26.80;;
22138;SDS011;25815;52.582;13.408;2024-03-02T01:49:24;57.78;;;28.20;;
22138;SDS011;25815;52.582;13.408;2024-03-02T01:51:50;51.55;;;26.38;;
22138;SDS011;25815;52.582;13.408;2024-03-02T01:54:16;55.38;;;27.83;;
22138;SDS011;25815;52.582;13.408;2024-03-02T01:56:41;56.95;;;28.13;;
22138;SDS011;25815;52.582;13.408;2024-03-02T01:59:07;61.08;;;28.52;;
22138;SDS011;25815;52.582;13.408;2024-03-02T02:01:32;57.67;;;28.08;;
22138;SDS011;25815;52.582;13.408;2024-03-02T02:03:58;62.58;;;28.95;;
22138;SDS011;25815;52.582;13.408;2024-03-02T02:06:24;56.33;;;27.70;;
22138;SDS011;25815;52.582;13.408;2024-03-02T02:08:49;56.80;;;27.65;;
22138;SDS011;25815;52.582;13.408;2024-03-02T02:11:15;58.28;;;28.52;;
22138;SDS011;25815;52.582;13.408;2024-03-02T02:13:41;60.38;;;28.63;;
22138;SDS011;25815;52.582;13.408;2024-03-02T02:16:07;58.63;;;28.55;;
22138;SDS011;25815;52.582;13.408;2024-03-02T02:18:34;55.15;;;28.17;;
22138;SDS011;25815;52.582;13.408;2024-03-02T02:21:00;60.65;;;29.15;;
22138;SDS011;25815;52.582;13.408;2024-03-02T02:23:26;56.92;;;28.58;;
22138;SDS011;25815;52.582;13.408;2024-03-02T02:25:52;61.78;;;29.17;;
22138;SDS011;25815;52.582;13.408;2024-03-02T02:28:17;56.90;;;27.67;;
22138;SDS011;25815;52.582;13.408;2024-03-02T02:30:43;56.75;;;29.05;;
22138;SDS011;25815;52.582;13.408;2024-03-02T02:33:09;61.33;;;29.65;;
22138;SDS011;25815;52.582;13.408;2024-03-02T02:35:34;56.88;;;28.33;;
22138;SDS011;25815;52.582;13.408;2024-03-02T02:38:00;59.97;;;29.23;;
22138;SDS011;25815;52.582;13.408;2024-03-02T02:40:27;62.30;;;28.67;;
22138;SDS011;25815;52.582;13.408;2024-03-02T02:42:55;55.63;;;27.90;;
22138;SDS011;25815;52.582;13.408;2024-03-02T02:45:21;59.42;;;28.70;;
22138;SDS011;25815;52.582;13.408;2024-03-02T02:47:47;55.38;;;28.40;;
22138;SDS011;25815;52.582;13.408;2024-03-02T02:50:13;55.90;;;27.80;;
22138;SDS011;25815;52.582;13.408;2024-03-02T02:52:39;55.10;;;28.40;;
22138;SDS011;25815;52.582;13.408;2024-03-02T02:55:06;57.65;;;28.48;;
22138;SDS011;25815;52.582;13.408;2024-03-02T02:57:36;54.50;;;27.35;;
22138;SDS011;25815;52.582;13.408;2024-03-02T03:00:10;57.40;;;28.17;;
22138;SDS011;25815;52.582;13.408;2024-03-02T03:02:41;53.95;;;26.92;;
22138;SDS011;25815;52.582;13.408;2024-03-02T03:05:07;53.85;;;27.48;;
22138;SDS011;25815;52.582;13.408;2024-03-02T03:07:39;52.72;;;27.25;;
22138;SDS011;25815;52.582;13.408;2024-03-02T03:10:05;60.40;;;29.17;;
22138;SDS011;25815;52.582;13.408;2024-03-02T03:12:31;59.28;;;29.15;;
22138;SDS011;25815;52.582;13.408;2024-03-02T03:14:57;62.28;;;29.73;;
22138;SDS011;25815;52.582;13.408;2024-03-02T03:17:24;57.63;;;29.08;;
22138;SDS011;25815;52.582;13.408;2024-03-02T03:19:50;64.30;;;30.48;;
22138;SDS011;25815;52.582;13.408;2024-03-02T03:22:16;61.75;;;30.55;;
22138;SDS011;25815;52.582;13.408;2024-03-02T03:24:41;59.58;;;29.88;;
22138;SDS011;25815;52.582;13.408;2024-03-02T03:27:07;63.13;;;31.40;;
22138;SDS011;25815;52.582;13.408;2024-03-02T03:29:33;62.80;;;30.35;;
22138;SDS011;25815;52.582;13.408;2024-03-02T03:31:58;64.60;;;31.30;;
22138;SDS011;25815;52.582;13.408;2024-03-02T03:34:24;61.42;;;30.05;;
22138;SDS011;25815;52.582;13.408;2024-03-02T03:36:49;58.35;;;30.80;;
22138;SDS011;25815;52.582;13.408;2024-03-02T03:39:15;60.90;;;31.02;;
22138;SDS011;25815;52.582;13.408;2024-03-02T03:41:40;63.15;;;31.48;;
22138;SDS011;25815;52.582;13.408;2024-03-02T03:44:06;59.10;;;30.48;;
22138;SDS011;25815;52.582;13.408;2024-03-02T03:46:32;66.53;;;31.00;;
22138;SDS011;25815;52.582;13.408;2024-03-02T03:48:57;59.47;;;29.50;;
22138;SDS011;25815;52.582;13.408;2024-03-02T03:51:23;59.53;;;30.80;;
22138;SDS011;25815;52.582;13.408;2024-03-02T03:53:48;63.97;;;29.35;;
22138;SDS011;25815;52.582;13.408;2024-03-02T03:56:14;64.05;;;31.23;;
22138;SDS011;25815;52.582;13.408;2024-03-02T03:58:39;60.42;;;30.67;;
22138;SDS011;25815;52.582;13.408;2024-03-02T04:01:05;61.35;;;29.52;;
22138;SDS011;25815;52.582;13.408;2024-03-02T04:03:31;57.00;;;28.15;;
22138;SDS011;25815;52.582;13.408;2024-03-02T04:05:56;56.47;;;30.05;;
22138;SDS011;25815;52.582;13.408;2024-03-02T04:08:22;59.42;;;29.33;;
22138;SDS011;25815;52.582;13.408;2024-03-02T04:10:47;53.47;;;28.40;;
22138;SDS011;25815;52.582;13.408;2024-03-02T04:13:13;57.55;;;28.38;;
22138;SDS011;25815;52.582;13.408;2024-03-02T04:15:38;55.55;;;28.08;;
22138;SDS011;25815;52.582;13.408;2024-03-02T04:18:05;54.50;;;27.27;;
22138;SDS011;25815;52.582;13.408;2024-03-02T04:20:31;48.72;;;26.73;;
22138;SDS011;25815;52.582;13.408;2024-03-02T04:22:57;54.08;;;27.45;;
22138;SDS011;25815;52.582;13.408;2024-03-02T04:25:22;51.58;;;27.17;;
22138;SDS011;25815;52.582;13.408;2024-03-02T04:27:48;54.53;;;27.83;;
22138;SDS011;25815;52.582;13.408;2024-03-02T04:30:13;53.33;;;27.58;;
22138;SDS011;25815;52.582;13.408;2024-03-02T04:32:39;51.75;;;26.92;;
22138;SDS011;25815;52.582;13.408;2024-03-02T04:35:05;52.80;;;26.40;;
22138;SDS011;25815;52.582;13.408;2024-03-02T04:37:34;51.88;;;27.50;;
22138;SDS011;25815;52.582;13.408;2024-03-02T04:39:59;50.22;;;26.05;;
22138;SDS011;25815;52.582;13.408;2024-03-02T04:42:25;50.15;;;25.60;;
22138;SDS011;25815;52.582;13.408;2024-03-02T04:44:51;44.72;;;25.85;;
22138;SDS011;25815;52.582;13.408;2024-03-02T04:47:16;49.83;;;25.35;;
22138;SDS011;25815;52.582;13.408;2024-03-02T04:49:42;47.03;;;25.48;;
22138;SDS011;25815;52.582;13.408;2024-03-02T04:52:08;49.90;;;25.23;;
22138;SDS011;25815;52.582;13.408;2024-03-02T04:54:34;48.42;;;24.35;;
22138;SDS011;25815;52.582;13.408;2024-03-02T04:57:19;51.20;;;24.85;;
22138;SDS011;25815;52.582;13.408;2024-03-02T04:59:45;53.10;;;25.67;;
22138;SDS011;25815;52.582;13.408;2024-03-02T05:02:10;46.33;;;24.55;;
22138;SDS011;25815;52.582;13.408;2024-03-02T05:04:38;53.00;;;25.50;;
22138;SDS011;25815;52.582;13.408;2024-03-02T05:07:05;45.33;;;25.05;;
22138;SDS011;25815;52.582;13.408;2024-03-02T05:09:30;48.92;;;24.50;;
22138;SDS011;25815;52.582;13.408;2024-03-02T05:11:56;46.47;;;24.70;;
22138;SDS011;25815;52.582;13.408;2024-03-02T05:14:40;46.83;;;24.98;;
22138;SDS011;25815;52.582;13.408;2024-03-02T05:17:06;49.03;;;25.50;;
22138;SDS011;25815;52.582;13.408;2024-03-02T05:19:31;46.53;;;25.17;;
22138;SDS011;25815;52.582;13.408;2024-03-02T05:21:57;51.17;;;24.42;;
22138;SDS011;25815;52.582;13.408;2024-03-02T05:24:22;53.00;;;24.58;;
22138;SDS011;25815;52.582;13.408;2024-03-02T05:26:48;48.13;;;25.27;;
22138;SDS011;25815;52.582;13.408;2024-03-02T05:29:14;52.22;;;25.90;;
22138;SDS011;25815;52.582;13.408;2024-03-02T05:31:39;46.58;;;24.98;;
22138;SDS011;25815;52.582;13.408;2024-03-02T05:34:05;52.15;;;25.77;;
22138;SDS011;25815;52.582;13.408;2024-03-02T05:36:31;52.53;;;26.17;;
22138;SDS011;25815;52.582;13.408;2024-03-02T05:38:57;51.22;;;24.73;;
22138;SDS011;25815;52.582;13.408;2024-03-02T05:41:22;47.97;;;25.00;;
22138;SDS011;25815;52.582;13.408;2024-03-02T05:43:48;51.50;;;27.70;;
22138;SDS011;25815;52.582;13.408;2024-03-02T05:46:14;51.03;;;25.58;;
22138;SDS011;25815;52.582;13.408;2024-03-02T05:48:40;52.72;;;26.42;;
22138;SDS011;25815;52.582;13.408;2024-03-02T05:51:05;49.25;;;26.40;;
22138;SDS011;25815;52.582;13.408;2024-03-02T05:53:31;56.10;;;28.35;;
22138;SDS011;25815;52.582;13.408;2024-03-02T05:55:56;59.08;;;27.90;;
22138;SDS011;25815;52.582;13.408;2024-03-02T05:58:22;58.63;;;27.48;;
22138;SDS011;25815;52.582;13.408;2024-03-02T06:00:53;53.67;;;27.90;;
22138;SDS011;25815;52.582;13.408;2024-03-02T06:03:19;56.85;;;27.88;;
22138;SDS011;25815;52.582;13.408;2024-03-02T06:05:45;56.15;;;28.58;;
22138;SDS011;25815;52.582;13.408;2024-03-02T06:08:10;58.50;;;27.73;;
22138;SDS011;25815;52.582;13.408;2024-03-02T06:10:36;57.70;;;27.40;;
22138;SDS011;25815;52.582;13.408;2024-03-02T06:13:02;59.20;;;28.42;;
22138;SDS011;25815;52.582;13.408;2024-03-02T06:15:27;61.30;;;28.17;;
22138;SDS011;25815;52.582;13.408;2024-03-02T06:17:53;60.67;;;27.38;;
22138;SDS011;25815;52.582;13.408;2024-03-02T06:20:18;66.05;;;30.67;;
22138;SDS011;25815;52.582;13.408;2024-03-02T06:22:44;65.20;;;29.73;;
22138;SDS011;25815;52.582;13.408;2024-03-02T06:25:09;64.55;;;29.85;;
22138;SDS011;25815;52.582;13.408;2024-03-02T06:27:35;60.42;;;29.05;;
22138;SDS011;25815;52.582;13.408;2024-03-02T06:30:01;62.15;;;29.35;;
22138;SDS011;25815;52.582;13.408;2024-03-02T06:32:26;64.72;;;30.88;;
22138;SDS011;25815;52.582;13.408;2024-03-02T06:34:52;65.95;;;30.58;;
22138;SDS011;25815;52.582;13.408;2024-03-02T06:37:18;68.50;;;31.15;;
22138;SDS011;25815;52.582;13.408;2024-03-02T06:39:43;63.28;;;29.77;;
22138;SDS011;25815;52.582;13.408;2024-03-02T06:42:09;66.55;;;29.80;;
22138;SDS011;25815;52.582;13.408;2024-03-02T06:44:34;66.22;;;30.63;;
22138;SDS011;25815;52.582;13.408;2024-03-02T06:47:00;65.18;;;29.10;;
22138;SDS011;25815;52.582;13.408;2024-03-02T06:49:25;61.00;;;29.08;;
22138;SDS011;25815;52.582;13.408;2024-03-02T06:51:51;63.97;;;29.92;;
22138;SDS011;25815;52.582;13.408;2024-03-02T06:54:16;62.85;;;29.95;;
22138;SDS011;25815;52.582;13.408;2024-03-02T06:56:42;63.25;;;29.70;;
22138;SDS011;25815;52.582;13.408;2024-03-02T06:59:08;60.88;;;29.35;;
22138;SDS011;25815;52.582;13.408;2024-03-02T07:01:33;61.15;;;28.38;;
22138;SDS011;25815;52.582;13.408;2024-03-02T07:03:59;59.00;;;29.48;;
22138;SDS011;25815;52.582;13.408;2024-03-02T07:06:25;63.05;;;29.85;;
22138;SDS011;25815;52.582;13.408;2024-03-02T07:08:50;65.63;;;30.10;;
22138;SDS011;25815;52.582;13.408;2024-03-02T07:11:16;62.83;;;29.50;;
22138;SDS011;25815;52.582;13.408;2024-03-02T07:13:41;67.78;;;29.67;;
22138;SDS011;25815;52.582;13.408;2024-03-02T07:16:07;62.58;;;29.17;;
22138;SDS011;25815;52.582;13.408;2024-03-02T07:18:35;60.42;;;29.52;;
22138;SDS011;25815;52.582;13.408;2024-03-02T07:21:09;64.35;;;29.73;;
22138;SDS011;25815;52.582;13.408;2024-03-02T07:23:35;62.80;;;29.63;;
22138;SDS011;25815;52.582;13.408;2024-03-02T07:26:01;66.22;;;30.80;;
22138;SDS011;25815;52.582;13.408;2024-03-02T07:28:27;60.78;;;28.55;;
22138;SDS011;25815;52.582;13.408;2024-03-02T07:31:02;63.08;;;28.90;;
22138;SDS011;25815;52.582;13.408;2024-03-02T07:33:29;66.55;;;29.95;;
22138;SDS011;25815;52.582;13.408;2024-03-02T07:35:55;62.33;;;29.10;;
22138;SDS011;25815;52.582;13.408;2024-03-02T07:38:21;61.60;;;28.60;;
22138;SDS011;25815;52.582;13.408;2024-03-02T07:40:47;62.38;;;30.85;;
22138;SDS011;25815;52.582;13.408;2024-03-02T07:43:15;59.00;;;29.23;;
22138;SDS011;25815;52.582;13.408;2024-03-02T07:45:42;62.42;;;29.20;;
22138;SDS011;25815;52.582;13.408;2024-03-02T07:48:07;59.88;;;28.50;;
22138;SDS011;25815;52.582;13.408;2024-03-02T07:50:33;62.40;;;29.35;;
22138;SDS011;25815;52.582;13.408;2024-03-02T07:53:00;58.97;;;28.45;;
22138;SDS011;25815;52.582;13.408;2024-03-02T07:55:26;62.00;;;29.65;;
22138;SDS011;25815;52.582;13.408;2024-03-02T07:57:52;62.25;;;28.70;;
22138;SDS011;25815;52.582;13.408;2024-03-02T08:00:18;60.08;;;29.13;;
22138;SDS011;25815;52.582;13.408;2024-03-02T08:02:43;59.88;;;29.38;;
22138;SDS011;25815;52.582;13.408;2024-03-02T08:05:09;59.45;;;29.27;;
22138;SDS011;25815;52.582;13.408;2024-03-02T08:07:35;64.10;;;29.35;;
22138;SDS011;25815;52.582;13.408;2024-03-02T08:10:00;61.88;;;29.02;;
22138;SDS011;25815;52.582;13.408;2024-03-02T08:12:26;61.35;;;28.98;;
22138;SDS011;25815;52.582;13.408;2024-03-02T08:14:52;55.97;;;28.13;;
22138;SDS011;25815;52.582;13.408;2024-03-02T08:17:17;62.08;;;29.42;;
22138;SDS011;25815;52.582;13.408;2024-03-02T08:19:43;58.55;;;28.23;;
22138;SDS011;25815;52.582;13.408;2024-03-02T08:22:09;68.03;;;29.98;;
22138;SDS011;25815;52.582;13.408;2024-03-02T08:24:35;56.33;;;27.48;;
22138;SDS011;25815;52.582;13.408;2024-03-02T08:27:01;58.53;;;28.23;;
22138;SDS011;25815;52.582;13.408;2024-03-02T08:29:26;55.67;;;26.95;;
22138;SDS011;25815;52.582;13.408;2024-03-02T08:31:53;54.78;;;26.83;;
22138;SDS011;25815;52.582;13.408;2024-03-02T08:34:18;58.92;;;27.20;;
22138;SDS011;25815;52.582;13.408;2024-03-02T08:36:44;52.92;;;27.45;;
22138;SDS011;25815;52.582;13.408;2024-03-02T08:39:10;56.17;;;26.88;;
22138;SDS011;25815;52.582;13.408;2024-03-02T08:41:40;59.30;;;28.55;;
22138;SDS011;25815;52.582;13.408;2024-03-02T08:44:09;55.40;;;27.27;;
22138;SDS011;25815;52.582;13.408;2024-03-02T08:46:35;55.22;;;27.20;;
22138;SDS011;25815;52.582;13.408;2024-03-02T08:49:01;53.03;;;26.77;;
22138;SDS011;25815;52.582;13.408;2024-03-02T08:51:27;56.92;;;27.92;;
22138;SDS011;25815;52.582;13.408;2024-03-02T08:53:52;53.60;;;27.08;;
22138;SDS011;25815;52.582;13.408;2024-03-02T08:56:18;54.47;;;27.63;;
22138;SDS011;25815;52.582;13.408;2024-03-02T08:58:45;54.15;;;26.20;;
22138;SDS011;25815;52.582;13.408;2024-03-02T09:01:11;54.33;;;27.02;;
22138;SDS011;25815;52.582;13.408;2024-03-02T09:03:36;54.53;;;28.00;;
22138;SDS011;25815;52.582;13.408;2024-03-02T09:06:02;54.78;;;25.95;;
22138;SDS011;25815;52.582;13.408;2024-03-02T09:08:28;54.78;;;26.55;;
22138;SDS011;25815;52.582;13.408;2024-03-02T09:10:54;52.85;;;27.45;;
22138;SDS011;25815;52.582;13.408;2024-03-02T09:13:21;50.95;;;26.67;;
22138;SDS011;25815;52.582;13.408;2024-03-02T09:15:47;49.33;;;25.23;;
22138;SDS011;25815;52.582;13.408;2024-03-02T09:18:12;50.63;;;26.08;;
22138;SDS011;25815;52.582;13.408;2024-03-02T09:20:38;50.63;;;23.90;;
22138;SDS011;25815;52.582;13.408;2024-03-02T09:23:04;49.60;;;24.38;;
22138;SDS011;25815;52.582;13.408;2024-03-02T09:25:29;54.45;;;26.55;;
22138;SDS011;25815;52.582;13.408;2024-03-02T09:27:55;50.03;;;24.98;;
22138;SDS011;25815;52.582;13.408;2024-03-02T09:30:21;48.28;;;24.63;;
22138;SDS011;25815;52.582;13.408;2024-03-02T09:32:47;49.30;;;24.63;;
22138;SDS011;25815;52.582;13.408;2024-03-02T09:35:12;48.25;;;24.40;;
22138;SDS011;25815;52.582;13.408;2024-03-02T09:37:38;52.05;;;26.15;;
22138;SDS011;25815;52.582;13.408;2024-03-02T09:40:04;51.58;;;26.27;;
22138;SDS011;25815;52.582;13.408;2024-03-02T09:42:31;56.22;;;25.30;;
22138;SDS011;25815;52.582;13.408;2024-03-02T09:44:57;52.35;;;24.60;;
22138;SDS011;25815;52.582;13.408;2024-03-02T09:47:23;52.58;;;26.55;;
22138;SDS011;25815;52.582;13.408;2024-03-02T09:49:49;53.35;;;25.25;;
22138;SDS011;25815;52.582;13.408;2024-03-02T09:52:14;51.42;;;25.25;;
22138;SDS011;25815;52.582;13.408;2024-03-02T09:54:41;51.17;;;24.63;;
22138;SDS011;25815;52.582;13.408;2024-03-02T09:57:06;52.38;;;25.58;;
22138;SDS011;25815;52.582;13.408;2024-03-02T09:59:32;50.75;;;25.58;;
22138;SDS011;25815;52.582;13.408;2024-03-02T10:01:58;53.08;;;25.00;;
22138;SDS011;25815;52.582;13.408;2024-03-02T10:04:28;53.38;;;26.60;;
22138;SDS011;25815;52.582;13.408;2024-03-02T10:09:38;49.58;;;23.77;;
22138;SDS011;25815;52.582;13.408;2024-03-02T10:12:05;50.80;;;23.27;;
22138;SDS011;25815;52.582;13.408;2024-03-02T10:14:31;53.55;;;23.35;;
22138;SDS011;25815;52.582;13.408;2024-03-02T10:17:03;48.15;;;23.45;;
22138;SDS011;25815;52.582;13.408;2024-03-02T10:19:31;46.42;;;24.20;;
22138;SDS011;25815;52.582;13.408;2024-03-02T10:21:58;47.70;;;24.13;;
22138;SDS011;25815;52.582;13.408;2024-03-02T10:24:24;48.13;;;23.83;;
22138;SDS011;25815;52.582;13.408;2024-03-02T10:26:50;54.22;;;24.58;;
22138;SDS011;25815;52.582;13.408;2024-03-02T10:29:17;41.22;;;21.40;;
22138;SDS011;25815;52.582;13.408;2024-03-02T10:31:43;50.00;;;23.00;;
22138;SDS011;25815;52.582;13.408;2024-03-02T10:34:11;41.42;;;21.52;;
22138;SDS011;25815;52.582;13.408;2024-03-02T10:36:41;39.30;;;20.67;;
22138;SDS011;25815;52.582;13.408;2024-03-02T10:39:08;38.30;;;19.52;;
22138;SDS011;25815;52.582;13.408;2024-03-02T10:41:36;36.13;;;18.55;;
22138;SDS011;25815;52.582;13.408;2024-03-02T10:44:03;37.55;;;18.10;;
22138;SDS011;25815;52.582;13.408;2024-03-02T10:46:30;33.58;;;17.95;;
22138;SDS011;25815;52.582;13.408;2024-03-02T10:48:59;35.25;;;17.80;;
22138;SDS011;25815;52.582;13.408;2024-03-02T10:51:27;34.10;;;18.27;;
22138;SDS011;25815;52.582;13.408;2024-03-02T10:53:56;36.60;;;19.30;;
22138;SDS011;25815;52.582;13.408;2024-03-02T10:56:29;36.75;;;19.17;;
22138;SDS011;25815;52.582;13.408;2024-03-02T11:02:01;40.10;;;19.20;;
22138;SDS011;25815;52.582;13.408;2024-03-02T11:04:29;34.75;;;17.48;;
22138;SDS011;25815;52.582;13.408;2024-03-02T11:07:03;34.17;;;17.25;;
22138;SDS011;25815;52.582;13.408;2024-03-02T11:09:33;27.42;;;15.13;;
22138;SDS011;25815;52.582;13.408;2024-03-02T11:12:03;32.15;;;16.30;;
22138;SDS011;25815;52.582;13.408;2024-03-02T11:14:43;26.40;;;14.70;;
22138;SDS011;25815;52.582;13.408;2024-03-02T11:17:08;30.73;;;15.20;;
22138;SDS011;25815;52.582;13.408;2024-03-02T11:19:36;31.08;;;16.33;;
22138;SDS011;25815;52.582;13.408;2024-03-02T11:22:03;28.52;;;15.27;;
22138;SDS011;25815;52.582;13.408;2024-03-02T11:24:30;28.23;;;15.98;;
22138;SDS011;25815;52.582;13.408;2024-03-02T11:27:02;28.40;;;14.70;;
22138;SDS011;25815;52.582;13.408;2024-03-02T11:32:02;24.55;;;13.35;;
22138;SDS011;25815;52.582;13.408;2024-03-02T11:34:30;22.58;;;13.13;;
22138;SDS011;25815;52.582;13.408;2024-03-02T11:36:56;23.50;;;13.88;;
22138;SDS011;25815;52.582;13.408;2024-03-02T11:39:24;27.80;;;14.27;;
22138;SDS011;25815;52.582;13.408;2024-03-02T11:41:50;27.42;;;13.73;;
22138;SDS011;25815;52.582;13.408;2024-03-02T11:44:16;24.42;;;13.57;;
22138;SDS011;25815;52.582;13.408;2024-03-02T11:46:43;22.23;;;12.57;;
22138;SDS011;25815;52.582;13.408;2024-03-02T11:49:13;25.52;;;13.70;;
22138;SDS011;25815;52.582;13.408;2024-03-02T11:54:15;23.70;;;12.50;;
22138;SDS011;25815;52.582;13.408;2024-03-02T11:56:41;21.83;;;12.30;;
22138;SDS011;25815;52.582;13.408;2024-03-02T11:59:06;23.45;;;13.43;;
22138;SDS011;25815;52.582;13.408;2024-03-02T12:01:34;23.98;;;12.30;;
22138;SDS011;25815;52.582;13.408;2024-03-02T12:04:00;24.05;;;12.32;;
22138;SDS011;25815;52.582;13.408;2024-03-02T12:06:26;25.05;;;10.98;;
22138;SDS011;25815;52.582;13.408;2024-03-02T12:08:54;27.65;;;13.23;;
22138;SDS011;25815;52.582;13.408;2024-03-02T12:11:20;23.75;;;12.35;;
22138;SDS011;25815;52.582;13.408;2024-03-02T12:13:52;28.33;;;13.80;;
22138;SDS011;25815;52.582;13.408;2024-03-02T12:16:23;24.58;;;11.95;;
22138;SDS011;25815;52.582;13.408;2024-03-02T12:18:49;22.67;;;11.90;;
22138;SDS011;25815;52.582;13.408;2024-03-02T12:21:15;24.83;;;12.35;;
22138;SDS011;25815;52.582;13.408;2024-03-02T12:23:41;22.10;;;11.82;;
22138;SDS011;25815;52.582;13.408;2024-03-02T12:26:06;24.88;;;11.82;;
22138;SDS011;25815;52.582;13.408;2024-03-02T12:28:33;21.00;;;12.05;;
22138;SDS011;25815;52.582;13.408;2024-03-02T12:30:59;23.55;;;11.57;;
22138;SDS011;25815;52.582;13.408;2024-03-02T12:33:25;19.65;;;11.10;;
22138;SDS011;25815;52.582;13.408;2024-03-02T12:35:52;23.75;;;12.07;;
22138;SDS011;25815;52.582;13.408;2024-03-02T12:38:18;22.42;;;11.65;;
22138;SDS011;25815;52.582;13.408;2024-03-02T12:40:44;20.83;;;11.32;;
22138;SDS011;25815;52.582;13.408;2024-03-02T12:43:12;21.13;;;11.50;;
22138;SDS011;25815;52.582;13.408;2024-03-02T12:45:37;25.70;;;11.95;;
22138;SDS011;25815;52.582;13.408;2024-03-02T12:48:04;23.65;;;11.73;;
22138;SDS011;25815;52.582;13.408;2024-03-02T12:50:30;18.58;;;10.23;;
22138;SDS011;25815;52.582;13.408;2024-03-02T12:52:56;21.17;;;11.10;;
22138;SDS011;25815;52.582;13.408;2024-03-02T12:55:21;25.20;;;10.70;;
22138;SDS011;25815;52.582;13.408;2024-03-02T12:57:49;18.25;;;9.68;;
22138;SDS011;25815;52.582;13.408;2024-03-02T13:00:17;18.70;;;9.48;;
22138;SDS011;25815;52.582;13.408;2024-03-02T13:02:45;17.40;;;9.40;;
22138;SDS011;25815;52.582;13.408;2024-03-02T13:05:11;20.27;;;10.18;;
22138;SDS011;25815;52.582;13.408;2024-03-02T13:07:39;19.00;;;9.98;;
22138;SDS011;25815;52.582;13.408;2024-03-02T13:10:06;19.90;;;10.50;;
22138;SDS011;25815;52.582;13.408;2024-03-02T13:12:33;20.75;;;10.40;;
22138;SDS011;25815;52.582;13.408;2024-03-02T13:15:01;18.20;;;9.85;;
22138;SDS011;25815;52.582;13.408;2024-03-02T13:17:28;21.08;;;10.95;;
22138;SDS011;25815;52.582;13.408;2024-03-02T13:19:58;17.05;;;9.73;;
22138;SDS011;25815;52.582;13.408;2024-03-02T13:22:24;19.75;;;10.40;;
22138;SDS011;25815;52.582;13.408;2024-03-02T13:24:51;17.25;;;9.70;;
22138;SDS011;25815;52.582;13.408;2024-03-02T13:27:19;19.88;;;10.35;;
22138;SDS011;25815;52.582;13.408;2024-03-02T13:29:48;18.17;;;9.20;;
22138;SDS011;25815;52.582;13.408;2024-03-02T13:32:14;17.17;;;9.38;;
22138;SDS011;25815;52.582;13.408;2024-03-02T13:34:40;15.77;;;9.05;;
22138;SDS011;25815;52.582;13.408;2024-03-02T13:37:06;19.17;;;10.55;;
22138;SDS011;25815;52.582;13.408;2024-03-02T13:39:31;18.88;;;9.98;;
22138;SDS011;25815;52.582;13.408;2024-03-02T13:41:58;18.60;;;9.88;;
22138;SDS011;25815;52.582;13.408;2024-03-02T13:44:29;16.67;;;8.48;;
22138;SDS011;25815;52.582;13.408;2024-03-02T13:46:55;14.98;;;7.07;;
22138;SDS011;25815;52.582;13.408;2024-03-02T13:49:22;9.10;;;5.95;;
22138;SDS011;25815;52.582;13.408;2024-03-02T13:51:48;13.82;;;7.28;;
22138;SDS011;25815;52.582;13.408;2024-03-02T13:54:14;10.98;;;6.32;;
22138;SDS011;25815;52.582;13.408;2024-03-02T13:56:39;13.90;;;7.00;;
22138;SDS011;25815;52.582;13.408;2024-03-02T13:59:06;12.88;;;7.43;;
22138;SDS011;25815;52.582;13.408;2024-03-02T14:01:32;12.68;;;7.05;;
22138;SDS011;25815;52.582;13.408;2024-03-02T14:03:58;10.18;;;6.55;;
22138;SDS011;25815;52.582;13.408;2024-03-02T14:06:23;10.50;;;6.45;;
22138;SDS011;25815;52.582;13.408;2024-03-02T14:08:51;16.45;;;8.20;;
22138;SDS011;25815;52.582;13.408;2024-03-02T14:11:17;14.15;;;8.18;;
22138;SDS011;25815;52.582;13.408;2024-03-02T14:13:43;15.70;;;8.23;;
22138;SDS011;25815;52.582;13.408;2024-03-02T14:16:12;14.47;;;7.23;;
22138;SDS011;25815;52.582;13.408;2024-03-02T14:18:37;14.02;;;7.00;;
22138;SDS011;25815;52.582;13.408;2024-03-02T14:21:03;15.13;;;7.60;;
22138;SDS011;25815;52.582;13.408;2024-03-02T14:23:29;12.98;;;7.32;;